createdAt,value
2019-05-15T00:00:53.339Z,9.58
2019-05-15T00:05:54.902Z,9.43
2019-05-15T00:10:58.087Z,9.35
2019-05-15T00:15:59.948Z,9.27
2019-05-15T00:21:01.447Z,9.17
2019-05-15T00:26:03.028Z,9.04
2019-05-15T00:31:04.568Z,8.96
2019-05-15T00:36:08.477Z,8.84
2019-05-15T00:41:09.737Z,8.74
2019-05-15T00:46:11.233Z,8.65
2019-05-15T00:51:14.736Z,8.55
2019-05-15T00:56:16.225Z,8.48
2019-05-15T01:01:19.288Z,8.40
2019-05-15T01:06:20.890Z,8.35
2019-05-15T01:11:22.310Z,8.30
2019-05-15T01:16:23.630Z,8.25
2019-05-15T01:21:25.167Z,8.26
2019-05-15T01:26:28.227Z,8.23
2019-05-15T01:31:29.766Z,8.19
2019-05-15T01:36:31.157Z,8.18
2019-05-15T01:41:32.682Z,8.16
2019-05-15T01:46:34.106Z,8.13
2019-05-15T01:51:35.504Z,8.11
2019-05-15T01:56:38.695Z,8.03
2019-05-15T02:01:40.341Z,8.02
2019-05-15T02:06:41.865Z,7.98
2019-05-15T02:11:43.246Z,7.90
2019-05-15T02:16:44.768Z,7.86
2019-05-15T02:21:48.477Z,7.83
2019-05-15T02:26:49.841Z,7.82
2019-05-15T02:31:51.320Z,7.78
2019-05-15T02:36:52.824Z,7.75
2019-05-15T02:41:54.336Z,7.72
2019-05-15T02:46:58.595Z,7.66
2019-05-15T02:52:00.229Z,7.61
2019-05-15T02:57:02.115Z,7.55
2019-05-15T03:02:03.714Z,7.51
2019-05-15T03:07:05.253Z,7.47
2019-05-15T03:12:09.101Z,7.44
2019-05-15T03:17:10.165Z,7.42
2019-05-15T03:22:11.651Z,7.41
2019-05-15T03:27:13.135Z,7.37
2019-05-15T03:32:27.763Z,7.34
2019-05-15T03:37:22.038Z,7.29
2019-05-15T03:42:21.474Z,7.24
2019-05-15T03:47:22.892Z,7.17
2019-05-15T03:52:24.383Z,7.13
2019-05-15T03:57:25.959Z,7.10
2019-05-15T04:02:28.794Z,7.09
2019-05-15T04:07:30.608Z,7.09
2019-05-15T04:12:32.198Z,7.38
2019-05-15T04:17:33.695Z,7.18
2019-05-15T04:22:35.206Z,7.17
2019-05-15T04:27:39.053Z,7.20
2019-05-15T04:32:40.240Z,7.20
2019-05-15T04:37:41.808Z,7.21
2019-05-15T04:42:43.318Z,7.22
2019-05-15T04:47:44.824Z,7.29
2019-05-15T04:52:49.904Z,7.36
2019-05-15T04:57:50.267Z,7.54
2019-05-15T05:02:51.980Z,7.74
2019-05-15T05:07:53.527Z,7.98
2019-05-15T05:12:55.130Z,8.00
2019-05-15T05:17:58.575Z,7.98
2019-05-15T05:23:00.095Z,8.17
2019-05-15T05:28:01.600Z,8.27
2019-05-15T05:33:03.418Z,8.35
2019-05-15T05:38:04.890Z,8.32
2019-05-15T05:43:09.305Z,8.27
2019-05-15T05:48:09.963Z,8.29
2019-05-15T05:53:11.493Z,8.31
2019-05-15T05:58:13.061Z,8.38
2019-05-15T06:03:14.555Z,8.43
2019-05-15T06:08:19.141Z,8.51
2019-05-15T06:13:19.631Z,8.59
2019-05-15T06:18:21.147Z,8.66
2019-05-15T06:23:25.098Z,8.78
2019-05-15T06:28:28.686Z,8.89
2019-05-15T06:33:29.786Z,9.01
2019-05-15T06:38:31.283Z,9.15
2019-05-15T06:43:32.827Z,9.28
2019-05-15T06:48:34.438Z,9.40
2019-05-15T06:53:38.250Z,9.52
2019-05-15T06:58:39.352Z,9.64
2019-05-15T07:03:40.727Z,9.78
2019-05-15T07:08:42.248Z,9.92
2019-05-15T07:13:43.745Z,10.07
2019-05-15T07:18:45.281Z,10.21
2019-05-15T07:23:49.619Z,10.40
2019-05-15T07:28:51.091Z,10.69
2019-05-15T07:33:52.591Z,11.01
2019-05-15T07:38:54.106Z,11.76
2019-05-15T07:43:55.629Z,12.16
2019-05-15T07:48:58.379Z,12.40
2019-05-15T07:54:02.630Z,12.56
2019-05-15T07:59:03.624Z,12.86
2019-05-15T08:04:22.757Z,13.22
2019-05-15T08:09:08.933Z,13.61
2019-05-15T08:14:10.489Z,13.94
2019-05-15T08:19:12.045Z,14.25
2019-05-15T08:24:13.449Z,14.50
2019-05-15T08:29:18.569Z,14.88
2019-05-15T08:34:19.605Z,15.32
2019-05-15T08:39:21.293Z,15.77
2019-05-15T08:44:23.028Z,15.99
2019-05-15T08:49:24.587Z,16.27
2019-05-15T08:54:25.998Z,16.43
2019-05-15T08:59:29.438Z,16.68
2019-05-15T09:04:34.786Z,16.89
2019-05-15T09:09:34.687Z,17.22
2019-05-15T09:14:38.023Z,17.47
2019-05-15T09:19:39.691Z,17.77
2019-05-15T09:24:41.212Z,18.25
2019-05-15T09:29:42.650Z,18.22
2019-05-15T09:34:50.878Z,18.10
2019-05-15T09:39:48.973Z,18.18
2019-05-15T09:44:50.727Z,18.49
2019-05-15T09:49:52.263Z,18.52
2019-05-15T09:54:53.873Z,18.87
2019-05-15T09:59:55.491Z,19.02
2019-05-15T10:05:05.891Z,19.27
2019-05-15T10:10:00.582Z,19.31
2019-05-15T10:15:02.227Z,19.31
2019-05-15T10:20:03.882Z,19.60
2019-05-15T10:25:08.135Z,19.64
2019-05-15T10:30:09.328Z,19.79
2019-05-15T10:35:24.371Z,20.14
2019-05-15T10:40:14.906Z,20.29
2019-05-15T10:45:19.091Z,20.40
2019-05-15T10:50:20.247Z,20.37
2019-05-15T10:55:21.807Z,20.66
2019-05-15T11:00:23.345Z,20.56
2019-05-15T11:05:40.219Z,20.27
2019-05-15T11:10:29.021Z,20.12
2019-05-15T11:15:30.702Z,20.28
2019-05-15T11:20:32.206Z,20.51
2019-05-15T11:25:33.645Z,20.65
2019-05-15T11:30:35.179Z,20.81
2019-05-15T11:35:39.074Z,20.69
2019-05-15T11:40:40.144Z,20.66
2019-05-15T11:45:41.641Z,20.62
2019-05-15T11:50:43.154Z,20.47
2019-05-15T11:55:44.697Z,20.83
2019-05-15T12:00:48.772Z,21.01
2019-05-15T12:05:49.739Z,21.14
2019-05-15T12:10:51.284Z,21.16
2019-05-15T12:15:52.944Z,21.22
2019-05-15T12:20:54.648Z,21.15
2019-05-15T12:25:59.340Z,20.64
2019-05-15T12:30:59.996Z,21.05
2019-05-15T12:36:01.576Z,21.17
2019-05-15T13:01:18.387Z,20.66
2019-05-15T13:06:20.751Z,20.82
2019-05-15T13:11:22.324Z,20.61
2019-05-15T13:16:23.844Z,20.96
2019-05-15T13:21:25.370Z,21.19
2019-05-15T13:26:27.235Z,21.46
2019-05-15T13:31:28.970Z,21.54
2019-05-15T13:36:30.523Z,21.65
2019-05-15T13:41:32.022Z,21.62
2019-05-15T13:46:33.537Z,21.80
2019-05-15T13:51:35.117Z,21.99
2019-05-15T13:56:38.194Z,22.03
2019-05-15T14:01:40.071Z,22.27
2019-05-15T14:06:41.592Z,22.41
2019-05-15T14:11:43.008Z,22.36
2019-05-15T14:16:44.451Z,22.47
2019-05-15T14:21:52.064Z,22.48
2019-05-15T14:26:53.654Z,22.47
2019-05-15T14:31:55.121Z,22.07
2019-05-15T14:36:58.676Z,22.32
2019-05-15T14:42:00.543Z,22.63
2019-05-15T14:47:01.964Z,22.85
2019-05-15T14:52:08.821Z,23.16
2019-05-15T14:57:08.696Z,23.01
2019-05-15T15:02:10.577Z,22.69
2019-05-15T15:07:12.242Z,22.94
2019-05-15T15:12:13.839Z,23.15
2019-05-15T15:17:16.465Z,23.26
2019-05-15T15:22:18.041Z,22.99
2019-05-15T15:27:19.621Z,23.02
2019-05-15T15:32:21.142Z,22.88
2019-05-15T15:37:22.717Z,23.13
2019-05-15T15:42:24.516Z,23.15
2019-05-15T15:47:28.154Z,23.25
2019-05-15T15:52:29.990Z,23.24
2019-05-15T15:57:31.437Z,23.09
2019-05-15T16:02:32.942Z,23.30
2019-05-15T16:07:34.618Z,23.30
2019-05-15T16:12:38.463Z,23.21
2019-05-15T16:17:39.528Z,23.10
2019-05-15T16:22:43.131Z,23.04
2019-05-15T16:27:44.760Z,22.89
2019-05-15T16:32:46.260Z,22.94
2019-05-15T16:37:49.228Z,22.94
2019-05-15T16:42:52.146Z,23.42
2019-05-15T16:47:53.792Z,23.53
2019-05-15T16:52:58.402Z,23.26
2019-05-15T16:57:59.877Z,22.91
2019-05-15T17:03:13.542Z,22.60
2019-05-15T17:08:04.901Z,22.59
2019-05-15T17:13:08.486Z,22.65
2019-05-15T17:18:09.807Z,22.70
2019-05-15T17:23:11.399Z,22.55
2019-05-15T17:28:13.217Z,22.48
2019-05-15T17:33:14.764Z,22.33
2019-05-15T17:38:18.260Z,22.21
2019-05-15T17:43:19.724Z,22.12
2019-05-15T17:48:21.308Z,22.06
2019-05-15T17:53:22.648Z,22.04
2019-05-15T17:58:24.356Z,21.67
2019-05-15T18:03:28.797Z,21.34
2019-05-15T18:08:30.086Z,21.05
2019-05-15T18:13:31.892Z,20.68
2019-05-15T18:18:33.432Z,20.29
2019-05-15T18:23:35.002Z,19.95
2019-05-15T18:28:38.783Z,19.69
2019-05-15T18:33:53.049Z,19.34
2019-05-15T18:38:43.715Z,19.12
2019-05-15T18:43:48.284Z,18.96
2019-05-15T18:48:49.767Z,18.81
2019-05-15T18:53:51.271Z,18.68
2019-05-15T18:58:52.795Z,18.49
2019-05-15T19:03:54.297Z,18.23
2019-05-15T19:08:55.960Z,18.06
2019-05-15T19:13:58.899Z,17.89
2019-05-15T19:19:00.799Z,17.50
2019-05-15T19:24:02.677Z,17.06
2019-05-15T19:29:04.182Z,16.53
2019-05-15T19:34:05.752Z,16.20
2019-05-15T19:39:08.053Z,16.02
2019-05-15T19:44:09.825Z,15.76
2019-05-15T19:49:12.392Z,15.56
2019-05-15T19:54:13.836Z,15.32
2019-05-15T19:59:15.298Z,15.15
2019-05-15T20:04:18.568Z,15.05
2019-05-15T20:09:20.205Z,14.91
2019-05-15T20:14:21.740Z,14.83
2019-05-15T20:19:23.344Z,14.68
2019-05-15T20:24:24.853Z,14.50
2019-05-15T20:29:28.822Z,14.35
2019-05-15T20:34:29.983Z,14.25
2019-05-15T20:39:31.509Z,14.16
2019-05-15T20:44:33.057Z,14.09
2019-05-15T20:49:34.670Z,13.99
2019-05-15T20:54:38.642Z,13.88
2019-05-15T20:59:39.566Z,13.82
2019-05-15T21:04:41.117Z,13.67
2019-05-15T21:09:42.651Z,13.44
2019-05-15T21:14:44.291Z,13.33
2019-05-15T21:19:45.801Z,13.24
2019-05-15T21:24:47.139Z,13.15
2019-05-15T21:29:49.124Z,13.05
2019-05-15T21:34:50.912Z,12.89
2019-05-15T21:39:52.451Z,12.83
2019-05-15T21:44:53.972Z,12.73
2019-05-15T21:49:55.816Z,12.55
2019-05-15T21:54:59.401Z,12.41
2019-05-15T22:00:00.824Z,12.28
2019-05-15T22:05:02.837Z,12.18
2019-05-15T22:10:04.358Z,12.01
2019-05-15T22:15:05.897Z,11.92
2019-05-15T22:20:09.249Z,11.78
2019-05-15T22:25:11.613Z,11.70
2019-05-15T22:30:13.117Z,11.59
2019-05-15T22:35:15.014Z,11.48
2019-05-15T22:40:18.313Z,11.40
2019-05-15T22:45:19.747Z,11.30
2019-05-15T22:50:21.242Z,11.20
2019-05-15T22:55:22.760Z,11.09
2019-05-15T23:00:24.221Z,11.00
2019-05-15T23:05:29.362Z,10.89
2019-05-15T23:10:29.464Z,10.80
2019-05-15T23:15:31.184Z,10.76
2019-05-15T23:20:32.680Z,10.75
2019-05-15T23:25:34.119Z,10.72
2019-05-15T23:30:35.677Z,10.68
2019-05-15T23:35:38.923Z,10.65
2019-05-15T23:40:40.631Z,10.61
2019-05-15T23:45:42.101Z,10.58
2019-05-15T23:50:43.534Z,10.54
2019-05-15T23:55:44.930Z,10.51
